createdAt,value
2023-03-26T00:00:44.487Z,8.7
2023-03-26T00:02:00.784Z,8.7
2023-03-26T00:03:17.068Z,8.7
2023-03-26T00:04:33.359Z,8.7
2023-03-26T00:05:48.686Z,8.6
2023-03-26T00:07:04.981Z,8.7
2023-03-26T00:08:21.268Z,8.6
2023-03-26T00:09:37.553Z,8.6
2023-03-26T00:10:53.856Z,8.6
2023-03-26T00:12:10.148Z,8.6
2023-03-26T00:13:26.446Z,8.6
2023-03-26T00:14:42.732Z,8.5
2023-03-26T00:15:59.019Z,8.4
2023-03-26T00:17:15.314Z,8.4
2023-03-26T00:18:31.607Z,8.4
2023-03-26T00:19:47.917Z,8.4
2023-03-26T00:21:04.206Z,8.4
2023-03-26T00:22:19.506Z,8.3
2023-03-26T00:23:35.803Z,8.3
2023-03-26T00:24:52.109Z,8.3
2023-03-26T00:26:08.396Z,8.3
2023-03-26T00:27:24.686Z,8.3
2023-03-26T00:28:40.993Z,8.3
2023-03-26T00:29:57.288Z,8.3
2023-03-26T00:31:13.571Z,8.3
2023-03-26T00:32:29.855Z,8.2
2023-03-26T00:33:46.151Z,8.3
2023-03-26T00:35:02.455Z,8.2
2023-03-26T00:36:18.750Z,8.2
2023-03-26T00:37:35.031Z,8.2
2023-03-26T00:38:50.355Z,8.2
2023-03-26T00:40:06.642Z,8.2
2023-03-26T00:41:22.932Z,8.2
2023-03-26T00:42:39.229Z,8.2
2023-03-26T00:43:55.537Z,8.2
2023-03-26T00:45:11.824Z,8.2
2023-03-26T00:46:28.113Z,8.2
2023-03-26T00:47:44.404Z,8.2
2023-03-26T00:49:00.704Z,8.2
2023-03-26T00:50:16.994Z,8.2
2023-03-26T00:51:33.287Z,8.2
2023-03-26T00:52:49.587Z,8.2
2023-03-26T00:54:05.869Z,8.2
2023-03-26T00:55:21.177Z,8.2
2023-03-26T00:56:37.491Z,8.2
2023-03-26T00:57:53.773Z,8.2
2023-03-26T00:59:10.061Z,8.2
2023-03-26T01:00:26.359Z,8.2
2023-03-26T01:01:42.643Z,8.2
2023-03-26T01:02:58.936Z,8.2
2023-03-26T01:04:15.227Z,8.2
2023-03-26T01:05:31.542Z,8.1
2023-03-26T01:06:47.815Z,8.1
2023-03-26T01:08:04.119Z,8.1
2023-03-26T01:09:20.403Z,8.1
2023-03-26T01:10:36.699Z,8
2023-03-26T01:11:52.018Z,8.1
2023-03-26T01:13:08.300Z,8
2023-03-26T01:14:24.599Z,8
2023-03-26T01:15:40.897Z,8
2023-03-26T01:16:57.188Z,8
2023-03-26T01:18:13.486Z,8
2023-03-26T01:19:29.783Z,8
2023-03-26T01:20:46.071Z,8
2023-03-26T01:22:02.367Z,8
2023-03-26T01:23:18.649Z,8
2023-03-26T01:24:34.953Z,8
2023-03-26T01:25:51.246Z,8
2023-03-26T01:27:07.531Z,8
2023-03-26T01:28:22.854Z,8
2023-03-26T01:29:39.143Z,8
2023-03-26T01:30:55.436Z,8
2023-03-26T01:32:11.737Z,8
2023-03-26T01:33:28.021Z,8
2023-03-26T01:34:44.318Z,8
2023-03-26T01:36:00.627Z,8
2023-03-26T01:37:16.901Z,8
2023-03-26T01:38:33.201Z,8
2023-03-26T01:39:49.495Z,7.9
2023-03-26T01:41:05.778Z,8
2023-03-26T01:42:22.087Z,7.9
2023-03-26T01:43:38.370Z,7.9
2023-03-26T01:44:53.682Z,7.9
2023-03-26T01:46:09.985Z,7.9
2023-03-26T01:47:26.274Z,7.9
2023-03-26T01:48:42.566Z,8
2023-03-26T01:49:58.848Z,8
2023-03-26T01:51:15.162Z,8
2023-03-26T01:52:31.439Z,8
2023-03-26T01:53:47.749Z,8
2023-03-26T01:55:04.030Z,8
2023-03-26T01:56:20.319Z,8
2023-03-26T01:57:36.625Z,8
2023-03-26T01:58:52.911Z,8
2023-03-26T02:00:09.197Z,8
2023-03-26T02:01:24.527Z,8
2023-03-26T02:02:40.820Z,8
2023-03-26T02:03:57.101Z,8
2023-03-26T02:05:13.401Z,8
2023-03-26T02:06:29.686Z,8
2023-03-26T02:07:45.980Z,7.9
2023-03-26T02:09:01.000Z,8
2023-03-26T02:10:17.605Z,7.9
2023-03-26T02:11:33.887Z,7.9
2023-03-26T02:12:50.191Z,7.9
2023-03-26T02:14:06.474Z,7.9
2023-03-26T02:15:22.765Z,7.9
2023-03-26T02:16:39.078Z,7.9
2023-03-26T02:17:55.361Z,7.9
2023-03-26T02:19:11.642Z,7.9
2023-03-26T02:20:27.944Z,7.9
2023-03-26T02:21:44.231Z,7.9
2023-03-26T02:23:00.539Z,7.9
2023-03-26T02:24:16.834Z,7.9
2023-03-26T02:25:32.135Z,7.9
2023-03-26T02:26:48.429Z,7.9
2023-03-26T02:28:04.718Z,7.9
2023-03-26T02:29:21.011Z,7.9
2023-03-26T02:30:37.312Z,7.9
2023-03-26T02:31:53.611Z,7.9
2023-03-26T02:33:09.901Z,7.9
2023-03-26T02:34:26.197Z,7.9
2023-03-26T02:35:42.480Z,7.9
2023-03-26T02:36:58.781Z,7.9
2023-03-26T02:38:15.076Z,7.9
2023-03-26T02:39:31.363Z,7.8
2023-03-26T02:40:47.667Z,7.8
2023-03-26T02:42:02.969Z,7.8
2023-03-26T02:43:19.261Z,7.8
2023-03-26T02:44:35.558Z,7.8
2023-03-26T02:45:51.858Z,7.8
2023-03-26T02:47:08.145Z,7.8
2023-03-26T02:48:24.435Z,7.8
2023-03-26T02:49:40.726Z,7.7
2023-03-26T02:50:57.031Z,7.7
2023-03-26T02:52:13.320Z,7.7
2023-03-26T02:53:29.619Z,7.7
2023-03-26T02:54:45.908Z,7.7
2023-03-26T02:56:02.198Z,7.7
2023-03-26T02:57:18.495Z,7.7
2023-03-26T02:58:33.808Z,7.7
2023-03-26T02:59:50.100Z,7.7
2023-03-26T03:01:06.389Z,7.7
2023-03-26T03:02:22.688Z,7.7
2023-03-26T03:03:38.983Z,7.7
2023-03-26T03:04:55.275Z,7.6
2023-03-26T03:06:11.569Z,7.6
2023-03-26T03:07:27.856Z,7.6
2023-03-26T03:08:44.139Z,7.6
2023-03-26T03:10:00.445Z,7.6
2023-03-26T03:11:16.741Z,7.6
2023-03-26T03:12:33.026Z,7.6
2023-03-26T03:13:49.325Z,7.6
2023-03-26T03:15:04.630Z,7.6
2023-03-26T03:16:20.943Z,7.7
2023-03-26T03:17:37.214Z,7.7
2023-03-26T03:18:53.520Z,7.7
2023-03-26T03:20:09.807Z,7.7
2023-03-26T03:21:26.106Z,7.7
2023-03-26T03:22:42.400Z,7.7
2023-03-26T03:23:58.688Z,7.7
2023-03-26T03:25:14.986Z,7.7
2023-03-26T03:26:31.268Z,7.7
2023-03-26T03:27:47.559Z,7.7
2023-03-26T03:29:03.853Z,7.7
2023-03-26T03:30:20.146Z,7.7
2023-03-26T03:31:35.467Z,7.7
2023-03-26T03:32:51.748Z,7.7
2023-03-26T03:34:08.055Z,7.7
2023-03-26T03:35:24.349Z,7.7
2023-03-26T03:36:40.636Z,7.7
2023-03-26T03:37:56.938Z,7.7
2023-03-26T03:39:13.232Z,7.7
2023-03-26T03:40:29.509Z,7.7
2023-03-26T03:41:45.828Z,7.7
2023-03-26T03:43:02.117Z,7.7
2023-03-26T03:44:18.404Z,7.7
2023-03-26T03:45:34.689Z,7.7
2023-03-26T03:46:50.983Z,7.7
2023-03-26T03:48:06.288Z,7.7
2023-03-26T03:49:22.581Z,7.8
2023-03-26T03:50:38.874Z,7.8
2023-03-26T03:51:55.190Z,7.7
2023-03-26T03:53:11.476Z,7.8
2023-03-26T03:54:27.771Z,7.8
2023-03-26T03:55:44.065Z,7.8
2023-03-26T03:57:00.342Z,7.7
2023-03-26T03:58:16.658Z,7.8
2023-03-26T03:59:32.931Z,7.8
2023-03-26T04:00:49.227Z,7.8
2023-03-26T04:02:05.522Z,7.7
2023-03-26T04:03:21.827Z,7.7
2023-03-26T04:04:37.152Z,7.8
2023-03-26T04:05:53.416Z,7.8
2023-03-26T04:07:09.718Z,7.8
2023-03-26T04:08:26.017Z,7.8
2023-03-26T04:09:42.297Z,7.8
2023-03-26T04:10:58.604Z,7.9
2023-03-26T04:12:14.888Z,7.9
2023-03-26T04:13:31.189Z,7.9
2023-03-26T04:14:47.479Z,7.9
2023-03-26T04:16:03.769Z,7.9
2023-03-26T04:17:20.061Z,7.8
2023-03-26T04:18:36.359Z,7.8
2023-03-26T04:19:52.654Z,7.8
2023-03-26T04:21:07.969Z,7.8
2023-03-26T04:22:24.259Z,7.8
2023-03-26T04:23:40.563Z,7.8
2023-03-26T04:24:56.843Z,7.8
2023-03-26T04:26:13.149Z,7.8
2023-03-26T04:27:29.448Z,7.8
2023-03-26T04:28:45.731Z,7.8
2023-03-26T04:30:02.010Z,7.7
2023-03-26T04:31:18.319Z,7.7
2023-03-26T04:32:34.557Z,7.7
2023-03-26T04:33:50.854Z,7.7
2023-03-26T04:35:07.154Z,7.7
2023-03-26T04:36:23.387Z,7.7
2023-03-26T04:37:38.717Z,7.7
2023-03-26T04:38:55.010Z,7.7
2023-03-26T04:40:11.282Z,7.7
2023-03-26T04:41:27.592Z,7.7
2023-03-26T04:42:43.883Z,7.7
2023-03-26T04:44:00.143Z,7.7
2023-03-26T04:45:16.360Z,7.7
2023-03-26T04:46:32.614Z,7.7
2023-03-26T04:47:48.862Z,7.7
2023-03-26T04:49:05.098Z,7.7
2023-03-26T04:50:21.337Z,7.7
2023-03-26T04:51:37.590Z,7.7
2023-03-26T04:52:53.804Z,7.7
2023-03-26T04:54:09.062Z,7.6
2023-03-26T04:55:25.299Z,7.6
2023-03-26T04:56:41.548Z,7.6
2023-03-26T04:57:57.790Z,7.6
2023-03-26T04:59:14.013Z,7.6
2023-03-26T05:00:30.275Z,7.6
2023-03-26T05:01:46.515Z,7.6
2023-03-26T05:03:02.740Z,7.5
2023-03-26T05:04:18.976Z,7.6
2023-03-26T05:05:35.221Z,7.6
2023-03-26T05:06:51.450Z,7.6
2023-03-26T05:08:07.700Z,7.6
2023-03-26T05:09:23.933Z,7.6
2023-03-26T05:10:39.184Z,7.6
2023-03-26T05:11:55.451Z,7.6
2023-03-26T05:13:11.676Z,7.6
2023-03-26T05:14:27.920Z,7.6
2023-03-26T05:15:44.157Z,7.6
2023-03-26T05:17:00.393Z,7.7
2023-03-26T05:18:16.632Z,7.7
2023-03-26T05:19:32.882Z,7.7
2023-03-26T05:20:49.138Z,7.7
2023-03-26T05:22:05.362Z,7.8
2023-03-26T05:23:21.613Z,7.8
2023-03-26T05:24:37.826Z,7.9
2023-03-26T05:25:54.068Z,7.9
2023-03-26T05:27:09.320Z,7.9
2023-03-26T05:28:25.585Z,7.9
2023-03-26T05:29:41.805Z,7.9
2023-03-26T05:30:58.044Z,8
2023-03-26T05:32:14.291Z,7.9
2023-03-26T05:33:30.538Z,8
2023-03-26T05:34:46.777Z,8
2023-03-26T05:36:03.024Z,8
2023-03-26T05:37:19.245Z,8
2023-03-26T05:38:35.486Z,8
2023-03-26T05:39:51.735Z,8.1
2023-03-26T05:41:07.962Z,8
2023-03-26T05:42:24.215Z,8.1
2023-03-26T05:43:39.467Z,8
2023-03-26T05:44:55.707Z,8
2023-03-26T05:46:11.941Z,8
2023-03-26T05:47:28.183Z,8.1
2023-03-26T05:48:44.439Z,8.1
2023-03-26T05:50:00.657Z,8.1
2023-03-26T05:51:16.895Z,8.1
2023-03-26T05:52:33.133Z,8.1
2023-03-26T05:53:49.382Z,8.1
2023-03-26T05:55:05.646Z,8.1
2023-03-26T05:56:21.866Z,8.1
2023-03-26T05:57:38.109Z,8.2
2023-03-26T05:58:54.351Z,8.1
2023-03-26T06:00:09.599Z,8.2
2023-03-26T06:01:25.837Z,8.1
2023-03-26T06:02:42.082Z,8.1
2023-03-26T06:03:58.324Z,8.1
2023-03-26T06:05:14.563Z,8.1
2023-03-26T06:06:30.804Z,8.2
2023-03-26T06:07:47.046Z,8.1
2023-03-26T06:09:03.299Z,8.2
2023-03-26T06:10:19.533Z,8.2
2023-03-26T06:11:35.768Z,8.2
2023-03-26T06:12:52.003Z,8.2
2023-03-26T06:14:08.230Z,8.2
2023-03-26T06:15:24.474Z,8.2
2023-03-26T06:16:39.729Z,8.2
2023-03-26T06:17:55.989Z,8.2
2023-03-26T06:19:12.227Z,8.2
2023-03-26T06:20:28.470Z,8.2
2023-03-26T06:21:44.703Z,8.2
2023-03-26T06:23:00.945Z,8.2
2023-03-26T06:24:16.201Z,8.2
2023-03-26T06:25:32.435Z,8.3
2023-03-26T06:26:48.682Z,8.3
2023-03-26T06:28:04.912Z,8.3
2023-03-26T06:29:21.146Z,8.3
2023-03-26T06:30:37.385Z,8.3
2023-03-26T06:31:53.645Z,8.3
2023-03-26T06:33:09.879Z,8.3
2023-03-26T06:34:26.120Z,8.3
2023-03-26T06:35:42.369Z,8.3
2023-03-26T06:36:58.584Z,8.3
2023-03-26T06:38:14.841Z,8.3
2023-03-26T06:39:31.073Z,8.3
2023-03-26T06:40:46.328Z,8.3
2023-03-26T06:42:02.568Z,8.4
2023-03-26T06:43:18.813Z,8.4
2023-03-26T06:44:35.046Z,8.4
2023-03-26T06:45:51.294Z,8.4
2023-03-26T06:47:07.522Z,8.4
2023-03-26T06:48:23.779Z,8.4
2023-03-26T06:49:39.999Z,8.5
2023-03-26T06:50:56.254Z,8.5
2023-03-26T06:52:12.484Z,8.5
2023-03-26T06:53:28.731Z,8.5
2023-03-26T06:54:44.981Z,8.5
2023-03-26T06:56:01.205Z,8.5
2023-03-26T06:57:16.459Z,8.5
2023-03-26T06:58:32.693Z,8.5
2023-03-26T06:59:48.939Z,8.6
2023-03-26T07:01:05.191Z,8.6
2023-03-26T07:02:21.431Z,8.6
2023-03-26T07:03:37.669Z,8.6
2023-03-26T07:04:53.909Z,8.7
2023-03-26T07:06:10.140Z,8.7
2023-03-26T07:07:26.373Z,8.7
2023-03-26T07:08:42.611Z,8.7
2023-03-26T07:09:58.859Z,8.7
2023-03-26T07:11:15.097Z,8.7
2023-03-26T07:12:31.354Z,8.7
2023-03-26T07:13:46.615Z,8.7
2023-03-26T07:15:02.831Z,8.8
2023-03-26T07:16:19.083Z,8.8
2023-03-26T07:17:35.315Z,8.8
2023-03-26T07:18:51.550Z,8.9
2023-03-26T07:20:07.801Z,8.9
2023-03-26T07:21:24.040Z,8.9
2023-03-26T07:22:40.261Z,8.9
2023-03-26T07:23:56.521Z,8.9
2023-03-26T07:25:12.774Z,8.9
2023-03-26T07:26:28.980Z,9
2023-03-26T07:27:45.224Z,9.1
2023-03-26T07:29:01.471Z,9
2023-03-26T07:30:16.715Z,9.1
2023-03-26T07:31:32.966Z,9.1
2023-03-26T07:32:49.219Z,9.2
2023-03-26T07:34:05.465Z,9.2
2023-03-26T07:35:21.674Z,9.3
2023-03-26T07:36:37.914Z,9.3
2023-03-26T07:37:54.156Z,9.3
2023-03-26T07:39:10.419Z,9.4
2023-03-26T07:40:26.656Z,9.4
2023-03-26T07:41:42.889Z,9.4
2023-03-26T07:42:59.112Z,9.4
2023-03-26T07:44:15.000Z,9.4
2023-03-26T07:45:31.616Z,9.4
2023-03-26T07:46:46.857Z,9.5
2023-03-26T07:48:03.110Z,9.4
2023-03-26T07:49:19.335Z,9.5
2023-03-26T07:50:35.591Z,9.5
2023-03-26T07:51:51.808Z,9.5
2023-03-26T07:53:08.051Z,9.5
2023-03-26T07:54:24.287Z,9.6
2023-03-26T07:55:40.545Z,9.6
2023-03-26T07:56:56.763Z,9.7
2023-03-26T07:58:13.021Z,9.7
2023-03-26T07:59:29.248Z,9.7
2023-03-26T08:00:45.492Z,9.7
2023-03-26T08:02:01.742Z,9.7
2023-03-26T08:03:16.981Z,9.7
2023-03-26T08:04:33.249Z,9.8
2023-03-26T08:05:49.459Z,9.8
2023-03-26T08:07:05.704Z,9.8
2023-03-26T08:08:21.961Z,9.8
2023-03-26T08:09:38.176Z,9.8
2023-03-26T08:10:54.424Z,9.9
2023-03-26T08:12:10.673Z,9.9
2023-03-26T08:13:26.921Z,10
2023-03-26T08:14:43.150Z,9.9
2023-03-26T08:15:59.393Z,10
2023-03-26T08:17:15.633Z,10
2023-03-26T08:18:31.860Z,10.1
2023-03-26T08:19:47.115Z,10.2
2023-03-26T08:21:03.385Z,10.1
2023-03-26T08:22:19.605Z,10.1
2023-03-26T08:23:35.862Z,10.2
2023-03-26T08:24:52.070Z,10.2
2023-03-26T08:26:08.342Z,10.1
2023-03-26T08:27:24.573Z,10.1
2023-03-26T08:28:40.815Z,10
2023-03-26T08:29:57.045Z,10.1
2023-03-26T08:31:13.289Z,10
2023-03-26T08:32:29.527Z,10
2023-03-26T08:33:45.753Z,10
2023-03-26T08:35:01.992Z,10.1
2023-03-26T08:36:17.269Z,10.1
2023-03-26T08:37:33.485Z,10.1
2023-03-26T08:38:49.722Z,10.1
2023-03-26T08:40:05.996Z,10.1
2023-03-26T08:41:22.202Z,10.1
2023-03-26T08:42:38.457Z,10.1
2023-03-26T08:43:54.688Z,10.2
2023-03-26T08:45:10.955Z,10.3
2023-03-26T08:46:27.190Z,10.4
2023-03-26T08:47:43.403Z,10.3
2023-03-26T08:48:59.649Z,10.4
2023-03-26T08:50:15.914Z,10.4
2023-03-26T08:51:32.132Z,10.4
2023-03-26T08:52:47.401Z,10.4
2023-03-26T08:54:03.626Z,10.4
2023-03-26T08:55:19.873Z,10.4
2023-03-26T08:56:36.120Z,10.5
2023-03-26T08:57:52.339Z,10.4
2023-03-26T08:59:08.584Z,10.4
2023-03-26T09:00:24.830Z,10.4
2023-03-26T09:01:41.078Z,10.5
2023-03-26T09:02:57.300Z,10.5
2023-03-26T09:04:13.535Z,10.5
2023-03-26T09:05:29.792Z,10.6
2023-03-26T09:06:46.032Z,10.7
2023-03-26T09:08:02.256Z,10.7
2023-03-26T09:09:17.518Z,10.7
2023-03-26T09:10:33.760Z,10.8
2023-03-26T09:11:50.002Z,10.9
2023-03-26T09:13:06.249Z,10.9
2023-03-26T09:14:22.488Z,10.9
2023-03-26T09:15:38.733Z,11
2023-03-26T09:16:54.970Z,11
2023-03-26T09:18:11.191Z,11
2023-03-26T09:19:27.455Z,11.1
2023-03-26T09:20:43.692Z,11
2023-03-26T09:21:59.927Z,11
2023-03-26T09:23:16.156Z,11
2023-03-26T09:24:32.416Z,11.1
2023-03-26T09:25:48.638Z,11.1
2023-03-26T09:27:03.891Z,11.1
2023-03-26T09:28:20.127Z,11.3
2023-03-26T09:29:36.000Z,11.2
2023-03-26T09:30:52.616Z,11.1
2023-03-26T09:32:08.848Z,11.2
2023-03-26T09:33:25.106Z,11.2
2023-03-26T09:34:41.348Z,11.3
2023-03-26T09:35:57.573Z,11.4
2023-03-26T09:37:13.814Z,11.5
2023-03-26T09:38:30.068Z,11.6
2023-03-26T09:39:46.311Z,11.5
2023-03-26T09:41:02.549Z,11.4
2023-03-26T09:42:18.777Z,11.3
2023-03-26T09:43:34.043Z,11.4
2023-03-26T09:44:50.277Z,11.3
2023-03-26T09:46:06.505Z,11.3
2023-03-26T09:47:22.756Z,11.3
2023-03-26T09:48:39.020Z,11.3
2023-03-26T09:49:55.231Z,11.4
2023-03-26T09:51:11.472Z,11.4
2023-03-26T09:52:27.711Z,11.4
2023-03-26T09:53:43.963Z,11.5
2023-03-26T09:55:00.203Z,11.6
2023-03-26T09:56:16.440Z,11.5
2023-03-26T09:57:32.694Z,11.5
2023-03-26T09:58:48.918Z,11.4
2023-03-26T10:00:04.159Z,11.4
2023-03-26T10:01:20.406Z,11.4
2023-03-26T10:02:36.658Z,11.3
2023-03-26T10:03:52.915Z,11.3
2023-03-26T10:05:09.128Z,11.4
2023-03-26T10:06:25.390Z,11.5
2023-03-26T10:07:41.599Z,11.5
2023-03-26T10:08:57.846Z,11.7
2023-03-26T10:10:14.115Z,12
2023-03-26T10:11:30.339Z,12.1
2023-03-26T10:12:46.573Z,12.1
2023-03-26T10:14:02.815Z,12
2023-03-26T10:15:19.047Z,12.1
2023-03-26T10:16:34.309Z,11.9
2023-03-26T10:17:50.562Z,12
2023-03-26T10:19:06.777Z,12.1
2023-03-26T10:20:23.041Z,12
2023-03-26T10:21:39.270Z,12.2
2023-03-26T10:22:55.517Z,12.1
2023-03-26T10:24:11.734Z,11.8
2023-03-26T10:25:28.007Z,11.7
2023-03-26T10:26:44.218Z,11.7
2023-03-26T10:28:00.461Z,11.7
2023-03-26T10:29:16.698Z,11.7
2023-03-26T10:30:32.969Z,11.7
2023-03-26T10:31:49.181Z,11.6
2023-03-26T10:33:04.448Z,11.7
2023-03-26T10:34:20.691Z,11.8
2023-03-26T10:35:36.911Z,11.9
2023-03-26T10:36:53.165Z,12.1
2023-03-26T10:38:09.419Z,12.2
2023-03-26T10:39:24.669Z,12.1
2023-03-26T10:40:40.914Z,12.1
2023-03-26T10:41:57.144Z,12.3
2023-03-26T10:43:13.371Z,12.2
2023-03-26T10:44:29.614Z,12.1
2023-03-26T10:45:45.864Z,12.3
2023-03-26T10:47:02.121Z,12.2
2023-03-26T10:48:18.355Z,12
2023-03-26T10:49:34.589Z,12.1
2023-03-26T10:50:50.809Z,12.1
2023-03-26T10:52:07.057Z,12.2
2023-03-26T10:53:23.289Z,12.2
2023-03-26T10:54:39.551Z,12.2
2023-03-26T10:55:54.816Z,12.2
2023-03-26T10:57:11.027Z,12
2023-03-26T10:58:27.289Z,12.1
2023-03-26T10:59:43.530Z,12.2
2023-03-26T11:00:59.771Z,12.3
2023-03-26T11:02:15.989Z,12.4
2023-03-26T11:03:32.242Z,12.4
2023-03-26T11:04:48.480Z,12.4
2023-03-26T11:06:04.729Z,12.4
2023-03-26T11:07:20.947Z,12.5
2023-03-26T11:08:37.195Z,12.4
2023-03-26T11:09:53.425Z,12.5
2023-03-26T11:11:09.686Z,12.4
2023-03-26T11:12:24.000Z,12.3
2023-03-26T11:13:41.158Z,12.1
2023-03-26T11:14:57.422Z,12.1
2023-03-26T11:16:13.668Z,12
2023-03-26T11:17:29.880Z,12.2
2023-03-26T11:18:46.142Z,12.5
2023-03-26T11:20:02.362Z,12.4
2023-03-26T11:21:18.619Z,12.3
2023-03-26T11:22:34.840Z,12.2
2023-03-26T11:23:51.101Z,12.1
2023-03-26T11:25:07.320Z,12.3
2023-03-26T11:26:23.576Z,12.4
2023-03-26T11:27:39.818Z,12.4
2023-03-26T11:28:55.073Z,12.3
2023-03-26T11:30:11.296Z,12.4
2023-03-26T11:31:27.562Z,12.5
2023-03-26T11:32:43.805Z,12.5
2023-03-26T11:34:00.019Z,12.5
2023-03-26T11:35:16.269Z,12.5
2023-03-26T11:36:32.507Z,12.4
2023-03-26T11:37:48.761Z,12.5
2023-03-26T11:39:04.975Z,12.5
2023-03-26T11:40:21.227Z,12.6
2023-03-26T11:41:37.470Z,12.7
2023-03-26T11:42:53.695Z,12.5
2023-03-26T11:44:09.927Z,12.5
2023-03-26T11:45:25.195Z,12.7
2023-03-26T11:46:41.434Z,12.7
2023-03-26T11:47:57.669Z,12.5
2023-03-26T11:49:13.904Z,12.4
2023-03-26T11:50:30.139Z,12.4
2023-03-26T11:51:46.383Z,12.4
2023-03-26T11:53:02.619Z,12.5
2023-03-26T11:54:18.860Z,12.5
2023-03-26T11:55:35.113Z,12.5
2023-03-26T11:56:51.338Z,12.4
2023-03-26T11:58:07.581Z,12.4
2023-03-26T11:59:23.837Z,12.2
2023-03-26T12:00:40.076Z,12.2
2023-03-26T12:01:55.312Z,12.2
2023-03-26T12:03:11.578Z,12.2
2023-03-26T12:04:27.821Z,12.2
2023-03-26T12:05:44.053Z,12.2
2023-03-26T12:07:00.290Z,12.2
2023-03-26T12:08:16.517Z,12.2
2023-03-26T12:09:32.753Z,12.1
2023-03-26T12:10:49.021Z,12
2023-03-26T12:12:05.263Z,12
2023-03-26T12:13:21.478Z,12
2023-03-26T12:14:37.734Z,12.1
2023-03-26T12:15:53.950Z,12.2
2023-03-26T12:17:10.202Z,12.4
2023-03-26T12:18:25.458Z,12.5
2023-03-26T12:19:41.705Z,12.6
2023-03-26T12:20:57.942Z,12.7
2023-03-26T12:22:14.187Z,12.5
2023-03-26T12:23:30.436Z,12.3
2023-03-26T12:24:46.650Z,12.4
2023-03-26T12:26:02.901Z,12.4
2023-03-26T12:27:19.148Z,12.4
2023-03-26T12:28:35.362Z,12.5
2023-03-26T12:29:51.605Z,12.6
2023-03-26T12:31:07.838Z,12.6
2023-03-26T12:32:24.083Z,12.7
2023-03-26T12:33:40.332Z,12.6
2023-03-26T12:34:55.605Z,12.7
2023-03-26T12:36:11.832Z,12.5
2023-03-26T12:37:28.069Z,12.5
2023-03-26T12:38:44.323Z,12.5
2023-03-26T12:40:00.539Z,12.4
2023-03-26T12:41:16.778Z,12.4
2023-03-26T12:42:33.016Z,12.3
2023-03-26T12:43:49.254Z,12.1
2023-03-26T12:45:05.520Z,11.8
2023-03-26T12:46:21.735Z,11.7
2023-03-26T12:47:37.981Z,11.7
2023-03-26T12:48:54.222Z,11.6
2023-03-26T12:50:10.491Z,11.5
2023-03-26T12:51:25.713Z,11.4
2023-03-26T12:52:41.946Z,11.3
2023-03-26T12:53:58.195Z,11.3
2023-03-26T12:55:14.437Z,11.3
2023-03-26T12:56:30.681Z,11.3
2023-03-26T12:57:46.909Z,11.3
2023-03-26T12:59:03.175Z,11.3
2023-03-26T13:00:19.391Z,11.3
2023-03-26T13:01:35.634Z,11.3
2023-03-26T13:02:51.890Z,11.1
2023-03-26T13:04:08.130Z,10.8
2023-03-26T13:05:24.354Z,10.5
2023-03-26T13:06:40.602Z,10.2
2023-03-26T13:07:55.873Z,10.1
2023-03-26T13:09:12.099Z,10
2023-03-26T13:10:28.353Z,9.9
2023-03-26T13:11:44.580Z,9.7
2023-03-26T13:13:00.821Z,9.6
2023-03-26T13:14:17.046Z,9.5
2023-03-26T13:15:33.318Z,9.4
2023-03-26T13:16:49.528Z,9.4
2023-03-26T13:18:05.777Z,9.3
2023-03-26T13:19:22.011Z,9.3
2023-03-26T13:20:38.248Z,9.4
2023-03-26T13:21:54.501Z,9.5
2023-03-26T13:23:10.750Z,9.5
2023-03-26T13:24:26.005Z,9.6
2023-03-26T13:25:42.250Z,9.6
2023-03-26T13:26:58.469Z,9.7
2023-03-26T13:28:14.714Z,9.7
2023-03-26T13:29:30.963Z,9.7
2023-03-26T13:30:47.189Z,9.8
2023-03-26T13:32:03.457Z,9.8
2023-03-26T13:33:19.667Z,9.9
2023-03-26T13:34:35.919Z,9.9
2023-03-26T13:35:52.151Z,9.8
2023-03-26T13:37:08.396Z,9.9
2023-03-26T13:38:24.626Z,10
2023-03-26T13:39:40.862Z,10
2023-03-26T13:40:56.135Z,9.9
2023-03-26T13:42:12.360Z,9.8
2023-03-26T13:43:28.617Z,9.8
2023-03-26T13:44:44.861Z,9.8
2023-03-26T13:46:01.103Z,9.7
2023-03-26T13:47:17.318Z,9.8
2023-03-26T13:48:33.590Z,9.7
2023-03-26T13:49:49.819Z,9.7
2023-03-26T13:51:06.076Z,9.7
2023-03-26T13:52:22.278Z,9.5
2023-03-26T13:53:38.549Z,9.5
2023-03-26T13:54:54.796Z,9.4
2023-03-26T13:56:11.002Z,9.3
2023-03-26T13:57:26.266Z,9.4
2023-03-26T13:58:42.507Z,9.3
2023-03-26T13:59:58.744Z,9.3
2023-03-26T14:01:14.978Z,9.4
2023-03-26T14:02:31.233Z,9.4
2023-03-26T14:03:47.463Z,9.5
2023-03-26T14:05:03.709Z,9.5
2023-03-26T14:06:19.968Z,9.5
2023-03-26T14:07:36.186Z,9.5
2023-03-26T14:08:52.421Z,9.6
2023-03-26T14:10:08.672Z,9.6
2023-03-26T14:11:24.901Z,9.5
2023-03-26T14:12:41.144Z,9.6
2023-03-26T14:13:56.401Z,9.6
2023-03-26T14:15:12.637Z,9.6
2023-03-26T14:16:28.900Z,9.6
2023-03-26T14:17:45.121Z,9.6
2023-03-26T14:19:01.362Z,9.5
2023-03-26T14:20:17.609Z,9.5
2023-03-26T14:21:33.833Z,9.5
2023-03-26T14:22:50.094Z,9.4
2023-03-26T14:24:06.321Z,9.4
2023-03-26T14:25:22.551Z,9.4
2023-03-26T14:26:38.806Z,9.4
2023-03-26T14:27:55.030Z,9.4
2023-03-26T14:29:11.269Z,9.4
2023-03-26T14:30:26.533Z,9.4
2023-03-26T14:31:42.780Z,9.4
2023-03-26T14:32:59.007Z,9.4
2023-03-26T14:34:15.261Z,9.4
2023-03-26T14:35:31.503Z,9.3
2023-03-26T14:36:47.731Z,9.3
2023-03-26T14:38:03.993Z,9.2
2023-03-26T14:39:20.207Z,9.3
2023-03-26T14:40:36.447Z,9.3
2023-03-26T14:41:52.691Z,9.3
2023-03-26T14:43:08.947Z,9.3
2023-03-26T14:44:25.180Z,9.3
2023-03-26T14:45:41.424Z,9.3
2023-03-26T14:46:56.683Z,9.2
2023-03-26T14:48:12.945Z,9.3
2023-03-26T14:49:29.170Z,9.3
2023-03-26T14:50:45.393Z,9.2
2023-03-26T14:52:01.638Z,9.1
2023-03-26T14:53:17.876Z,9
2023-03-26T14:54:33.136Z,9.1
2023-03-26T14:55:49.381Z,9
2023-03-26T14:57:05.620Z,9
2023-03-26T14:58:21.853Z,9
2023-03-26T14:59:38.115Z,8.9
2023-03-26T15:00:54.328Z,8.9
2023-03-26T15:02:10.565Z,8.9
2023-03-26T15:03:26.838Z,8.9
2023-03-26T15:04:43.046Z,8.9
2023-03-26T15:05:59.314Z,8.8
2023-03-26T15:07:15.528Z,8.8
2023-03-26T15:08:31.779Z,8.8
2023-03-26T15:09:48.032Z,8.8
2023-03-26T15:11:03.295Z,8.8
2023-03-26T15:12:19.499Z,8.7
2023-03-26T15:13:35.767Z,8.7
2023-03-26T15:14:51.983Z,8.7
2023-03-26T15:16:08.219Z,8.7
2023-03-26T15:17:24.498Z,8.7
2023-03-26T15:18:40.705Z,8.6
2023-03-26T15:19:56.938Z,8.6
2023-03-26T15:21:13.195Z,8.6
2023-03-26T15:22:29.456Z,8.6
2023-03-26T15:23:45.687Z,8.6
2023-03-26T15:25:01.900Z,8.6
2023-03-26T15:26:18.165Z,8.6
2023-03-26T15:27:33.409Z,8.6
2023-03-26T15:28:49.681Z,8.5
2023-03-26T15:30:05.906Z,8.5
2023-03-26T15:31:22.133Z,8.5
2023-03-26T15:32:38.360Z,8.5
2023-03-26T15:33:54.611Z,8.5
2023-03-26T15:35:10.866Z,8.5
2023-03-26T15:36:27.088Z,8.5
2023-03-26T15:37:43.320Z,8.6
2023-03-26T15:38:59.587Z,8.5
2023-03-26T15:40:15.832Z,8.5
2023-03-26T15:41:32.072Z,8.4
2023-03-26T15:42:48.326Z,8.4
2023-03-26T15:44:03.558Z,8.4
2023-03-26T15:45:19.789Z,8.4
2023-03-26T15:46:36.061Z,8.4
2023-03-26T15:47:52.295Z,8.3
2023-03-26T15:49:08.508Z,8.3
2023-03-26T15:50:24.780Z,8.3
2023-03-26T15:51:41.017Z,8.3
2023-03-26T15:52:57.223Z,8.3
2023-03-26T15:54:13.486Z,8.3
2023-03-26T15:55:29.727Z,8.4
2023-03-26T15:56:45.946Z,8.4
2023-03-26T15:58:02.192Z,8.3
2023-03-26T15:59:18.419Z,8.3
2023-03-26T16:00:33.705Z,8.3
2023-03-26T16:01:49.920Z,8.2
2023-03-26T16:03:06.190Z,8.2
2023-03-26T16:04:22.424Z,8.2
2023-03-26T16:05:38.654Z,8.2
2023-03-26T16:06:54.876Z,8.2
2023-03-26T16:08:11.118Z,8.2
2023-03-26T16:09:27.356Z,8.2
2023-03-26T16:10:43.624Z,8.1
2023-03-26T16:11:59.877Z,8.1
2023-03-26T16:13:16.088Z,8.2
2023-03-26T16:14:32.325Z,8.1
2023-03-26T16:15:48.560Z,8.1
2023-03-26T16:17:03.849Z,8.2
2023-03-26T16:18:20.086Z,8.2
2023-03-26T16:19:36.325Z,8.2
2023-03-26T16:20:52.575Z,8.2
2023-03-26T16:22:08.790Z,8.2
2023-03-26T16:23:25.030Z,8.3
2023-03-26T16:24:41.287Z,8.3
2023-03-26T16:25:57.496Z,8.3
2023-03-26T16:27:13.777Z,8.3
2023-03-26T16:28:29.983Z,8.3
2023-03-26T16:29:46.247Z,8.3
2023-03-26T16:31:02.468Z,8.3
2023-03-26T16:32:18.707Z,8.3
2023-03-26T16:33:33.951Z,8.3
2023-03-26T16:34:50.224Z,8.3
2023-03-26T16:36:06.431Z,8.3
2023-03-26T16:37:22.699Z,8.3
2023-03-26T16:38:38.914Z,8.4
2023-03-26T16:39:55.182Z,8.4
2023-03-26T16:41:11.396Z,8.4
2023-03-26T16:42:27.657Z,8.4
2023-03-26T16:43:43.872Z,8.5
2023-03-26T16:45:00.125Z,8.5
2023-03-26T16:46:16.390Z,8.5
2023-03-26T16:47:32.608Z,8.6
2023-03-26T16:48:48.837Z,8.6
2023-03-26T16:50:04.121Z,8.6
2023-03-26T16:51:20.341Z,8.6
2023-03-26T16:52:36.611Z,8.6
2023-03-26T16:53:52.818Z,8.6
2023-03-26T16:55:09.083Z,8.6
2023-03-26T16:56:25.298Z,8.6
2023-03-26T16:57:41.562Z,8.6
2023-03-26T16:58:57.774Z,8.6
2023-03-26T17:00:14.040Z,8.6
2023-03-26T17:01:30.255Z,8.6
2023-03-26T17:02:46.523Z,8.6
2023-03-26T17:04:02.762Z,8.6
2023-03-26T17:05:19.000Z,8.6
2023-03-26T17:06:34.238Z,8.5
2023-03-26T17:07:50.473Z,8.6
2023-03-26T17:09:06.738Z,8.6
2023-03-26T17:10:22.985Z,8.6
2023-03-26T17:11:39.189Z,8.7
2023-03-26T17:12:55.435Z,8.7
2023-03-26T17:14:11.685Z,8.6
2023-03-26T17:15:27.909Z,8.7
2023-03-26T17:16:44.176Z,8.6
2023-03-26T17:18:00.427Z,8.6
2023-03-26T17:19:16.661Z,8.6
2023-03-26T17:20:32.916Z,8.6
2023-03-26T17:21:49.141Z,8.6
2023-03-26T17:23:04.369Z,8.6
2023-03-26T17:24:20.611Z,8.6
2023-03-26T17:25:36.858Z,8.6